Luhe — 3FVZ6 — position and weather

sailwx.info

Track history (hours):
 
Tides and Currents Weather Stations Pressure Air Temp Water Temp Dewpoint Dewpoint Depression Visibility Wind Speed Wind Dir Waves Ship Positions

Luhe

Last reported at 2014-Jul-13 23:32 UTC. Time now 2014-Jul-23 11:23 UTC.
Position N 22°20' E 114°07'.
Warning: this ship's position is 9 days out of date.

Length 280 m; draft 11.9 m.

Type: Cargo ship. MMSI: 354812000.

Date/timePositionNaut miles runAvg speedWind from/ knotsBaromVisibWave heightAir tempDewpointWater temp
2014-Jul-13 23:32N 22°20' E 114°07'1 0.0
2014-Jul-13 03:25N 22°20' E 114°08'3 1.5
2014-Jul-13 01:24N 22°20' E 114°04'0 0.0
2014-Jul-13 00:30N 22°20' E 114°04'0 0.1
2014-Jul-12 23:06N 22°20' E 114°04'0 0.1
2014-Jul-12 22:30N 22°20' E 114°04'0 0.1
2014-Jul-12 21:30N 22°20' E 114°04'0 0.1
2014-Jul-12 20:30N 22°20' E 114°04'0 0.0
2014-Jul-12 19:24N 22°20' E 114°04'0 0.1
2014-Jul-12 18:30N 22°20' E 114°04'0 0.2
2014-Jul-12 17:33N 22°20' E 114°04'9 6.3
2014-Jul-12 16:10N 22°22' E 113°55'4 5.9
2014-Jul-12 15:33N 22°25' E 113°53'2 2.1
2014-Jul-12 14:28N 22°27' E 113°53'0 0.0
2014-Jul-12 13:28N 22°27' E 113°53'0 0.0
2014-Jul-12 12:28N 22°27' E 113°53'0 0.0
2014-Jul-12 11:28N 22°27' E 113°53'0 0.0
2014-Jul-12 10:25N 22°27' E 113°53'0 0.1
2014-Jul-12 09:28N 22°27' E 113°53'0 0.1
2014-Jul-12 08:28N 22°27' E 113°53'0 0.0
2014-Jul-12 07:31N 22°27' E 113°53'0 0.0
2014-Jul-12 06:28N 22°27' E 113°53'0 0.0
2014-Jul-12 05:31N 22°27' E 113°53'0 0.0
2014-Jul-12 04:28N 22°27' E 113°53'0 0.0
2014-Jul-12 03:31N 22°27' E 113°53'0 0.0
2014-Jul-12 02:23N 22°27' E 113°53'1 1.6
2014-Jul-12 01:33N 22°26' E 113°53'12 9.1
2014-Jul-12 00:12N 22°20' E 114°05'14513.0
2014-Jul-11 13:06N 22°44' E 116°39'913.1
2014-Jul-11 12:24N 22°49' E 116°48'1113.2
2014-Jul-11 11:33N 22°55' E 116°58'1413.9
2014-Jul-11 10:33N 23°02' E 117°11'3316.7
2014-Jul-11 08:33N 23°19' E 117°42'1817.6
2014-Jul-11 07:33N 23°30' E 117°57'1817.8
2014-Jul-11 06:33N 23°43' E 118°11'1717.5
2014-Jul-11 05:33N 23°57' E 118°21'1918.6
2014-Jul-11 04:33N 24°16' E 118°18'1514.7
2014-Jul-11 03:33N 24°25' E 118°05'7 6.3
2014-Jul-11 02:27N 24°27' E 117°58'0 0.0
2014-Jul-11 01:33N 24°27' E 117°58'0 0.0
2014-Jul-11 00:33N 24°27' E 117°58'0 0.0
2014-Jul-10 23:33N 24°27' E 117°58'0 0.0
2014-Jul-10 22:33N 24°27' E 117°58'0 0.0
2014-Jul-10 21:33N 24°27' E 117°58'0 0.0
2014-Jul-10 20:27N 24°27' E 117°58'0 0.0
2014-Jul-10 19:21N 24°27' E 117°58'0 0.0
2014-Jul-10 18:27N 24°27' E 117°58'0 0.0
2014-Jul-10 17:33N 24°27' E 117°58'0 0.0
2014-Jul-10 16:33N 24°27' E 117°58'0 0.0
2014-Jul-10 15:33N 24°27' E 117°58'2 0.6
2014-Jul-10 12:32N 24°27' E 118°00'1010.4
2014-Jul-10 11:33N 24°21' E 118°09'1211.8
2014-Jul-10 10:33N 24°18' E 118°22'1716.3
2014-Jul-10 09:33N 24°20' E 118°40'1616.3
2014-Jul-10 08:33N 24°24' E 118°57'1715.5
2014-Jul-10 07:29N 24°33' E 119°13'1515.8
2014-Jul-10 06:33N 24°42' E 119°25'1715.9
2014-Jul-10 05:30N 24°53' E 119°39'1515.3
2014-Jul-10 04:31N 25°03' E 119°51'7116.4
2014-Jul-10 00:12N 25°59' E 120°39'21217.7
2014-Jul-09 12:12N 29°06' E 122°33'3118.1
2014-Jul-09 10:30N 29°33' E 122°49'5619.0
2014-Jul-09 07:33N 30°28' E 123°00'1918.9
2014-Jul-09 06:33N 30°46' E 122°54'2119.1
2014-Jul-09 05:27N 31°04' E 122°40'1314.1
2014-Jul-09 04:31N 31°05' E 122°25'3411.2
2014-Jul-09 01:30N 31°17' E 121°48'8 3.5
2014-Jul-08 23:17N 31°20' E 121°40'0 0.0
2014-Jul-08 22:29N 31°20' E 121°40'0 0.0
2014-Jul-08 21:29N 31°20' E 121°40'0 0.0
2014-Jul-08 20:29N 31°20' E 121°40'0 0.0
2014-Jul-08 19:23N 31°20' E 121°40'0 0.0
2014-Jul-08 18:17N 31°20' E 121°40'0 0.0
2014-Jul-08 17:23N 31°20' E 121°40'0 0.0
2014-Jul-08 16:05N 31°20' E 121°40'0 0.0
2014-Jul-08 15:29N 31°20' E 121°40'0 0.0
2014-Jul-08 14:29N 31°20' E 121°40'0 0.0
2014-Jul-08 13:29N 31°20' E 121°40'0 0.0
2014-Jul-08 12:23N 31°20' E 121°40'0 0.0
2014-Jul-08 11:17N 31°20' E 121°40'0 0.0
2014-Jul-08 10:29N 31°20' E 121°40'0 0.0
2014-Jul-08 09:05N 31°20' E 121°40'0 0.0
2014-Jul-08 08:23N 31°20' E 121°40'0 0.0
2014-Jul-08 07:29N 31°20' E 121°40'0 0.0
2014-Jul-08 06:29N 31°20' E 121°40'0 0.0
2014-Jul-08 05:23N 31°20' E 121°40'0 0.0
2014-Jul-08 04:29N 31°20' E 121°40'0 0.0
2014-Jul-08 03:29N 31°20' E 121°40'0 0.0
2014-Jul-08 02:23N 31°20' E 121°40'0 0.0
2014-Jul-08 01:29N 31°20' E 121°40'0 0.0
2014-Jul-08 00:17N 31°20' E 121°40'0 0.3
2014-Jul-07 23:33N 31°20' E 121°40'9 8.6
2014-Jul-07 22:33N 31°17' E 121°49'1110.5
2014-Jul-07 21:30N 31°15' E 122°02'18 8.6
2014-Jul-07 19:28N 31°06' E 122°20'7 8.3
2014-Jul-07 18:33N 31°07' E 122°29'10 7.7
2014-Jul-07 17:18N 31°06' E 122°40'8 7.3
2014-Jul-07 16:10N 30°59' E 122°46'5 7.6
2014-Jul-07 15:31N 30°55' E 122°49'7 7.7
2014-Jul-07 14:33N 30°49' E 122°53'9 8.3
2014-Jul-07 13:32N 30°41' E 122°58'8 8.5
2014-Jul-07 12:33N 30°33' E 123°00'9 9.1
2014-Jul-07 11:33N 30°24' E 122°60'10 9.0
2014-Jul-07 10:30N 30°15' E 123°00'8 8.9
2014-Jul-07 09:33N 30°06' E 122°60'10 8.0
2014-Jul-07 08:21N 29°58' E 122°54'6 7.3
2014-Jul-07 07:33N 29°55' E 122°48'8 7.7
2014-Jul-07 06:33N 29°50' E 122°42'7 7.1
2014-Jul-07 05:34N 29°46' E 122°35'7 7.1
2014-Jul-07 04:33N 29°42' E 122°28'7 7.4
2014-Jul-07 03:33N 29°44' E 122°20'1110.9
2014-Jul-07 02:33N 29°52' E 122°11'7 6.5
2014-Jul-07 01:28N 29°53' E 122°03'0 0.0
2014-Jul-07 00:28N 29°53' E 122°03'0 0.0
2014-Jul-06 23:28N 29°53' E 122°03'0 0.0
2014-Jul-06 22:28N 29°53' E 122°03'0 0.0
2014-Jul-06 21:28N 29°53' E 122°03'0 0.0
2014-Jul-06 20:28N 29°53' E 122°03'0 0.0
2014-Jul-06 19:28N 29°53' E 122°03'0 0.0
2014-Jul-06 18:28N 29°53' E 122°03'0 0.0
2014-Jul-06 17:28N 29°53' E 122°03'0 0.0
2014-Jul-06 16:28N 29°53' E 122°03'0 0.0
2014-Jul-06 15:28N 29°53' E 122°03'0 0.0
2014-Jul-06 14:31N 29°53' E 122°03'0 0.0
2014-Jul-06 13:28N 29°53' E 122°03'0 0.0
2014-Jul-06 12:28N 29°53' E 122°03'0 0.0
2014-Jul-06 11:28N 29°53' E 122°03'0 0.0
2014-Jul-06 10:22N 29°53' E 122°03'0 0.0
2014-Jul-06 09:28N 29°53' E 122°03'0 0.0
2014-Jul-06 08:28N 29°53' E 122°03'0 0.4
2014-Jul-06 07:33N 29°54' E 122°04'9 8.8
2014-Jul-06 06:34N 29°50' E 122°13'1110.7
2014-Jul-06 05:34N 29°44' E 122°23'4 4.0
2014-Jul-06 04:34N 29°41' E 122°26'2 2.0
2014-Jul-06 03:28N 29°39' E 122°25'0 0.0
2014-Jul-06 02:29N 29°39' E 122°25'0 0.1
2014-Jul-06 01:29N 29°39' E 122°25'0 0.1
2014-Jul-06 00:29N 29°39' E 122°25'0 0.1
2014-Jul-05 23:17N 29°39' E 122°25'0 0.1
2014-Jul-05 22:29N 29°39' E 122°25'0 0.1
2014-Jul-05 21:29N 29°39' E 122°25'0 0.1
2014-Jul-05 20:29N 29°39' E 122°25'0 0.0
2014-Jul-05 19:29N 29°39' E 122°25'0 0.1
2014-Jul-05 18:29N 29°39' E 122°25'0 0.1
2014-Jul-05 17:23N 29°39' E 122°25'0 0.2
2014-Jul-05 16:29N 29°39' E 122°25'0 0.1
2014-Jul-05 15:23N 29°39' E 122°25'0 0.0
2014-Jul-05 14:29N 29°39' E 122°25'0 0.1
2014-Jul-05 13:29N 29°39' E 122°25'0 0.0
2014-Jul-05 12:28N 29°39' E 122°25'0 0.1
2014-Jul-05 11:23N 29°39' E 122°25'0 0.0
2014-Jul-05 10:29N 29°39' E 122°25'0 0.1
2014-Jul-05 09:23N 29°39' E 122°25'0 0.1
2014-Jul-05 08:17N 29°39' E 122°25'0 0.0
2014-Jul-05 07:29N 29°39' E 122°25'0 0.1
2014-Jul-05 06:29N 29°39' E 122°25'0 0.1
2014-Jul-05 05:23N 29°39' E 122°25'0 0.1
2014-Jul-05 04:29N 29°39' E 122°25'0 0.1
2014-Jul-05 03:29N 29°39' E 122°25'0 0.0
2014-Jul-05 02:29N 29°39' E 122°25'0 0.1
2014-Jul-05 01:29N 29°39' E 122°25'0 0.3
2014-Jul-05 00:33N 29°39' E 122°25'8 8.0
2014-Jul-04 23:33N 29°33' E 122°31'  
Track history (hours):
 
Tides and Currents Weather Stations Pressure Air Temp Water Temp Dewpoint Dewpoint Depression Visibility Wind Speed Wind Dir Waves Ship Positions

Luhe

Last reported at 2014-Jul-13 23:32 UTC. Time now 2014-Jul-23 11:23 UTC.
Position N 22°20' E 114°07'.
Warning: this ship's position is 9 days out of date.

Length 280 m; draft 11.9 m.

Type: Cargo ship. MMSI: 354812000.

Date/timePositionNaut miles runAvg speedWind from/ knotsBaromVisibWave heightAir tempDewpointWater temp
2014-Jul-13 23:32N 22°20' E 114°07'1 0.0
2014-Jul-13 03:25N 22°20' E 114°08'3 1.5
2014-Jul-13 01:24N 22°20' E 114°04'0 0.0
2014-Jul-13 00:30N 22°20' E 114°04'0 0.1
2014-Jul-12 23:06N 22°20' E 114°04'0 0.1
2014-Jul-12 22:30N 22°20' E 114°04'0 0.1
2014-Jul-12 21:30N 22°20' E 114°04'0 0.1
2014-Jul-12 20:30N 22°20' E 114°04'0 0.0
2014-Jul-12 19:24N 22°20' E 114°04'0 0.1
2014-Jul-12 18:30N 22°20' E 114°04'0 0.2
2014-Jul-12 17:33N 22°20' E 114°04'9 6.3
2014-Jul-12 16:10N 22°22' E 113°55'4 5.9
2014-Jul-12 15:33N 22°25' E 113°53'2 2.1
2014-Jul-12 14:28N 22°27' E 113°53'0 0.0
2014-Jul-12 13:28N 22°27' E 113°53'0 0.0
2014-Jul-12 12:28N 22°27' E 113°53'0 0.0
2014-Jul-12 11:28N 22°27' E 113°53'0 0.0
2014-Jul-12 10:25N 22°27' E 113°53'0 0.1
2014-Jul-12 09:28N 22°27' E 113°53'0 0.1
2014-Jul-12 08:28N 22°27' E 113°53'0 0.0
2014-Jul-12 07:31N 22°27' E 113°53'0 0.0
2014-Jul-12 06:28N 22°27' E 113°53'0 0.0
2014-Jul-12 05:31N 22°27' E 113°53'0 0.0
2014-Jul-12 04:28N 22°27' E 113°53'0 0.0
2014-Jul-12 03:31N 22°27' E 113°53'0 0.0
2014-Jul-12 02:23N 22°27' E 113°53'1 1.6
2014-Jul-12 01:33N 22°26' E 113°53'12 9.1
2014-Jul-12 00:12N 22°20' E 114°05'14513.0
2014-Jul-11 13:06N 22°44' E 116°39'913.1
2014-Jul-11 12:24N 22°49' E 116°48'1113.2
2014-Jul-11 11:33N 22°55' E 116°58'1413.9
2014-Jul-11 10:33N 23°02' E 117°11'3316.7
2014-Jul-11 08:33N 23°19' E 117°42'1817.6
2014-Jul-11 07:33N 23°30' E 117°57'1817.8
2014-Jul-11 06:33N 23°43' E 118°11'1717.5
2014-Jul-11 05:33N 23°57' E 118°21'1918.6
2014-Jul-11 04:33N 24°16' E 118°18'1514.7
2014-Jul-11 03:33N 24°25' E 118°05'7 6.3
2014-Jul-11 02:27N 24°27' E 117°58'0 0.0
2014-Jul-11 01:33N 24°27' E 117°58'0 0.0
2014-Jul-11 00:33N 24°27' E 117°58'0 0.0
2014-Jul-10 23:33N 24°27' E 117°58'0 0.0
2014-Jul-10 22:33N 24°27' E 117°58'0 0.0
2014-Jul-10 21:33N 24°27' E 117°58'0 0.0
2014-Jul-10 20:27N 24°27' E 117°58'0 0.0
2014-Jul-10 19:21N 24°27' E 117°58'0 0.0
2014-Jul-10 18:27N 24°27' E 117°58'0 0.0
2014-Jul-10 17:33N 24°27' E 117°58'0 0.0
2014-Jul-10 16:33N 24°27' E 117°58'0 0.0
2014-Jul-10 15:33N 24°27' E 117°58'2 0.6
2014-Jul-10 12:32N 24°27' E 118°00'1010.4
2014-Jul-10 11:33N 24°21' E 118°09'1211.8
2014-Jul-10 10:33N 24°18' E 118°22'1716.3
2014-Jul-10 09:33N 24°20' E 118°40'1616.3
2014-Jul-10 08:33N 24°24' E 118°57'1715.5
2014-Jul-10 07:29N 24°33' E 119°13'1515.8
2014-Jul-10 06:33N 24°42' E 119°25'1715.9
2014-Jul-10 05:30N 24°53' E 119°39'1515.3
2014-Jul-10 04:31N 25°03' E 119°51'7116.4
2014-Jul-10 00:12N 25°59' E 120°39'21217.7
2014-Jul-09 12:12N 29°06' E 122°33'3118.1
2014-Jul-09 10:30N 29°33' E 122°49'5619.0
2014-Jul-09 07:33N 30°28' E 123°00'1918.9
2014-Jul-09 06:33N 30°46' E 122°54'2119.1
2014-Jul-09 05:27N 31°04' E 122°40'1314.1
2014-Jul-09 04:31N 31°05' E 122°25'3411.2
2014-Jul-09 01:30N 31°17' E 121°48'8 3.5
2014-Jul-08 23:17N 31°20' E 121°40'0 0.0
2014-Jul-08 22:29N 31°20' E 121°40'0 0.0
2014-Jul-08 21:29N 31°20' E 121°40'0 0.0
2014-Jul-08 20:29N 31°20' E 121°40'0 0.0
2014-Jul-08 19:23N 31°20' E 121°40'0 0.0
2014-Jul-08 18:17N 31°20' E 121°40'0 0.0
2014-Jul-08 17:23N 31°20' E 121°40'0 0.0
2014-Jul-08 16:05N 31°20' E 121°40'0 0.0
2014-Jul-08 15:29N 31°20' E 121°40'0 0.0
2014-Jul-08 14:29N 31°20' E 121°40'0 0.0
2014-Jul-08 13:29N 31°20' E 121°40'0 0.0
2014-Jul-08 12:23N 31°20' E 121°40'0 0.0
2014-Jul-08 11:17N 31°20' E 121°40'0 0.0
2014-Jul-08 10:29N 31°20' E 121°40'0 0.0
2014-Jul-08 09:05N 31°20' E 121°40'0 0.0
2014-Jul-08 08:23N 31°20' E 121°40'0 0.0
2014-Jul-08 07:29N 31°20' E 121°40'0 0.0
2014-Jul-08 06:29N 31°20' E 121°40'0 0.0
2014-Jul-08 05:23N 31°20' E 121°40'0 0.0
2014-Jul-08 04:29N 31°20' E 121°40'0 0.0
2014-Jul-08 03:29N 31°20' E 121°40'0 0.0
2014-Jul-08 02:23N 31°20' E 121°40'0 0.0
2014-Jul-08 01:29N 31°20' E 121°40'0 0.0
2014-Jul-08 00:17N 31°20' E 121°40'0 0.3
2014-Jul-07 23:33N 31°20' E 121°40'9 8.6
2014-Jul-07 22:33N 31°17' E 121°49'1110.5
2014-Jul-07 21:30N 31°15' E 122°02'18 8.6
2014-Jul-07 19:28N 31°06' E 122°20'7 8.3
2014-Jul-07 18:33N 31°07' E 122°29'10 7.7
2014-Jul-07 17:18N 31°06' E 122°40'8 7.3
2014-Jul-07 16:10N 30°59' E 122°46'5 7.6
2014-Jul-07 15:31N 30°55' E 122°49'7 7.7
2014-Jul-07 14:33N 30°49' E 122°53'9 8.3
2014-Jul-07 13:32N 30°41' E 122°58'8 8.5
2014-Jul-07 12:33N 30°33' E 123°00'9 9.1
2014-Jul-07 11:33N 30°24' E 122°60'10 9.0
2014-Jul-07 10:30N 30°15' E 123°00'8 8.9
2014-Jul-07 09:33N 30°06' E 122°60'10 8.0
2014-Jul-07 08:21N 29°58' E 122°54'6 7.3
2014-Jul-07 07:33N 29°55' E 122°48'8 7.7
2014-Jul-07 06:33N 29°50' E 122°42'7 7.1
2014-Jul-07 05:34N 29°46' E 122°35'7 7.1
2014-Jul-07 04:33N 29°42' E 122°28'7 7.4
2014-Jul-07 03:33N 29°44' E 122°20'1110.9
2014-Jul-07 02:33N 29°52' E 122°11'7 6.5
2014-Jul-07 01:28N 29°53' E 122°03'0 0.0
2014-Jul-07 00:28N 29°53' E 122°03'0 0.0
2014-Jul-06 23:28N 29°53' E 122°03'0 0.0
2014-Jul-06 22:28N 29°53' E 122°03'0 0.0
2014-Jul-06 21:28N 29°53' E 122°03'0 0.0
2014-Jul-06 20:28N 29°53' E 122°03'0 0.0
2014-Jul-06 19:28N 29°53' E 122°03'0 0.0
2014-Jul-06 18:28N 29°53' E 122°03'0 0.0
2014-Jul-06 17:28N 29°53' E 122°03'0 0.0
2014-Jul-06 16:28N 29°53' E 122°03'0 0.0
2014-Jul-06 15:28N 29°53' E 122°03'0 0.0
2014-Jul-06 14:31N 29°53' E 122°03'0 0.0
2014-Jul-06 13:28N 29°53' E 122°03'0 0.0
2014-Jul-06 12:28N 29°53' E 122°03'0 0.0
2014-Jul-06 11:28N 29°53' E 122°03'0 0.0
2014-Jul-06 10:22N 29°53' E 122°03'0 0.0
2014-Jul-06 09:28N 29°53' E 122°03'0 0.0
2014-Jul-06 08:28N 29°53' E 122°03'0 0.4
2014-Jul-06 07:33N 29°54' E 122°04'9 8.8
2014-Jul-06 06:34N 29°50' E 122°13'1110.7
2014-Jul-06 05:34N 29°44' E 122°23'4 4.0
2014-Jul-06 04:34N 29°41' E 122°26'2 2.0
2014-Jul-06 03:28N 29°39' E 122°25'0 0.0
2014-Jul-06 02:29N 29°39' E 122°25'0 0.1
2014-Jul-06 01:29N 29°39' E 122°25'0 0.1
2014-Jul-06 00:29N 29°39' E 122°25'0 0.1
2014-Jul-05 23:17N 29°39' E 122°25'0 0.1
2014-Jul-05 22:29N 29°39' E 122°25'0 0.1
2014-Jul-05 21:29N 29°39' E 122°25'0 0.1
2014-Jul-05 20:29N 29°39' E 122°25'0 0.0
2014-Jul-05 19:29N 29°39' E 122°25'0 0.1
2014-Jul-05 18:29N 29°39' E 122°25'0 0.1
2014-Jul-05 17:23N 29°39' E 122°25'0 0.2
2014-Jul-05 16:29N 29°39' E 122°25'0 0.1
2014-Jul-05 15:23N 29°39' E 122°25'0 0.0
2014-Jul-05 14:29N 29°39' E 122°25'0 0.1
2014-Jul-05 13:29N 29°39' E 122°25'0 0.0
2014-Jul-05 12:28N 29°39' E 122°25'0 0.1
2014-Jul-05 11:23N 29°39' E 122°25'0 0.0
2014-Jul-05 10:29N 29°39' E 122°25'0 0.1
2014-Jul-05 09:23N 29°39' E 122°25'0 0.1
2014-Jul-05 08:17N 29°39' E 122°25'0 0.0
2014-Jul-05 07:29N 29°39' E 122°25'0 0.1
2014-Jul-05 06:29N 29°39' E 122°25'0 0.1
2014-Jul-05 05:23N 29°39' E 122°25'0 0.1
2014-Jul-05 04:29N 29°39' E 122°25'0 0.1
2014-Jul-05 03:29N 29°39' E 122°25'0 0.0
2014-Jul-05 02:29N 29°39' E 122°25'0 0.1
2014-Jul-05 01:29N 29°39' E 122°25'0 0.3
2014-Jul-05 00:33N 29°39' E 122°25'8 8.0
2014-Jul-04 23:33N 29°33' E 122°31'  

Dump ship's entire track history